createdAt,value
2022-09-04T00:02:16.765Z,102220.19
2022-09-04T00:04:46.553Z,102221.13
2022-09-04T00:07:39.438Z,102222.91
2022-09-04T00:10:21.696Z,102229.13
2022-09-04T00:13:27.530Z,102233.50
2022-09-04T00:16:07.736Z,102227.38
2022-09-04T00:18:52.106Z,102231.78
2022-09-04T00:21:48.339Z,102231.81
2022-09-04T00:24:25.056Z,102206.50
2022-09-04T00:27:04.932Z,102229.13
2022-09-04T00:30:06.427Z,102226.50
2022-09-04T00:33:12.079Z,102201.31
2022-09-04T00:35:49.934Z,102227.59
2022-09-04T00:39:13.828Z,102245.19
2022-09-04T00:42:05.094Z,102239.03
2022-09-04T00:45:16.808Z,102180.00
2022-09-04T00:48:16.004Z,102241.78
2022-09-04T00:51:15.118Z,102243.63
2022-09-04T00:54:24.223Z,102222.66
2022-09-04T00:56:55.706Z,102216.59
2022-09-04T00:59:57.743Z,102244.66
2022-09-04T01:03:08.034Z,102245.56
2022-09-04T01:06:15.224Z,102242.09
2022-09-04T01:09:31.641Z,102247.44
2022-09-04T01:12:48.280Z,102250.97
2022-09-04T01:15:43.928Z,102249.22
2022-09-04T01:19:02.272Z,102247.53
2022-09-04T01:22:12.443Z,102246.81
2022-09-04T01:24:59.291Z,102248.53
2022-09-04T01:27:41.902Z,102254.72
2022-09-04T01:30:18.217Z,102251.19
2022-09-04T01:33:15.646Z,102252.06
2022-09-04T01:36:11.369Z,102255.63
2022-09-04T01:39:01.439Z,102254.81
2022-09-04T01:41:43.173Z,102235.56
2022-09-04T01:44:12.584Z,102251.31
2022-09-04T01:47:09.295Z,102248.66
2022-09-04T01:50:08.056Z,102223.41
2022-09-04T01:53:06.668Z,102248.81
2022-09-04T01:56:06.961Z,102240.91
2022-09-04T01:58:41.883Z,102255.03
2022-09-04T02:01:46.468Z,102248.91
2022-09-04T02:04:33.584Z,102238.41
2022-09-04T02:07:23.473Z,102248.16
2022-09-04T02:10:50.633Z,102245.56
2022-09-04T02:13:45.032Z,102245.72
2022-09-04T02:16:18.083Z,102252.75
2022-09-04T02:19:29.965Z,102249.28
2022-09-04T02:22:33.771Z,102246.66
2022-09-04T02:25:10.941Z,102237.16
2022-09-04T02:27:46.685Z,102244.91
2022-09-04T02:30:19.222Z,102248.41
2022-09-04T02:33:27.978Z,102248.41
2022-09-04T02:36:10.693Z,102243.34
2022-09-04T02:38:53.550Z,102260.91
2022-09-04T02:41:52.541Z,102258.28
2022-09-04T02:44:51.950Z,102267.19
2022-09-04T02:47:45.947Z,102252.28
2022-09-04T02:50:45.184Z,102261.94
2022-09-04T02:53:36.881Z,102247.97
2022-09-04T02:56:39.890Z,102258.66
2022-09-04T02:59:35.604Z,102259.63
2022-09-04T03:02:17.698Z,102265.84
2022-09-04T03:05:21.536Z,102235.31
2022-09-04T03:08:22.597Z,102265.09
2022-09-04T03:11:05.090Z,102244.16
2022-09-04T03:13:54.743Z,102266.88
2022-09-04T03:16:37.380Z,102273.06
2022-09-04T03:19:10.405Z,102274.84
2022-09-04T03:22:08.189Z,102278.34
2022-09-04T03:25:01.344Z,102277.50
2022-09-04T03:27:35.299Z,102268.84
2022-09-04T03:30:09.626Z,102279.41
2022-09-04T03:33:03.765Z,102281.19
2022-09-04T03:36:01.046Z,102281.25
2022-09-04T03:39:04.429Z,102283.91
2022-09-04T03:41:45.238Z,102283.03
2022-09-04T03:45:00.248Z,102282.22
2022-09-04T03:47:49.341Z,102284.03
2022-09-04T03:50:31.923Z,102278.75
2022-09-04T03:53:42.529Z,102288.53
2022-09-04T03:56:44.743Z,102292.06
2022-09-04T03:59:49.747Z,102296.56
2022-09-04T04:02:32.051Z,102296.47
2022-09-04T04:05:19.955Z,102304.47
2022-09-04T04:08:27.831Z,102288.69
2022-09-04T04:11:30.156Z,102308.81
2022-09-04T04:14:37.597Z,102281.75
2022-09-04T04:17:38.107Z,102311.44
2022-09-04T04:20:27.039Z,102320.34
2022-09-04T04:24:06.646Z,102330.09
2022-09-04T04:27:15.358Z,102319.69
2022-09-04T04:30:14.102Z,102333.72
2022-09-04T04:33:35.060Z,102343.44
2022-09-04T04:36:55.887Z,102346.97
2022-09-04T04:40:15.035Z,102340.84
2022-09-04T04:43:04.486Z,102348.75
2022-09-04T04:45:52.407Z,102361.06
2022-09-04T04:48:28.272Z,102358.41
2022-09-04T04:51:18.805Z,102368.13
2022-09-04T04:54:53.813Z,102371.66
2022-09-04T04:57:45.522Z,102377.84
2022-09-04T05:00:27.372Z,102370.84
2022-09-04T05:03:12.777Z,102368.19
2022-09-04T05:06:01.425Z,102383.97
2022-09-04T05:08:43.265Z,102384.88
2022-09-04T05:11:31.013Z,102386.66
2022-09-04T05:14:37.733Z,102381.31
2022-09-04T05:17:26.423Z,102394.53
2022-09-04T05:20:25.067Z,102389.28
2022-09-04T05:23:28.606Z,102404.19
2022-09-04T05:26:23.565Z,102410.38
2022-09-04T05:29:21.690Z,102400.66
2022-09-04T05:31:55.888Z,102406.81
2022-09-04T05:35:23.221Z,102406.81
2022-09-04T05:38:17.718Z,102403.34
2022-09-04T05:41:26.046Z,102410.28
2022-09-04T05:44:00.368Z,102413.78
2022-09-04T05:47:12.999Z,102412.00
2022-09-04T05:50:01.774Z,102423.44
2022-09-04T05:53:03.386Z,102414.59
2022-09-04T05:55:54.737Z,102422.47
2022-09-04T05:58:49.243Z,102419.81
2022-09-04T06:01:56.429Z,102418.06
2022-09-04T06:05:22.979Z,102418.06
2022-09-04T06:08:40.757Z,102422.44
2022-09-04T06:11:43.799Z,102425.03
2022-09-04T06:14:54.410Z,102434.66
2022-09-04T06:17:41.661Z,102427.69
2022-09-04T06:20:33.241Z,102430.22
2022-09-04T06:23:39.827Z,102438.88
2022-09-04T06:26:40.907Z,102445.06
2022-09-04T06:29:45.969Z,102446.84
2022-09-04T06:32:32.686Z,102442.41
2022-09-04T06:35:36.256Z,102443.25
2022-09-04T06:38:12.518Z,102440.50
2022-09-04T06:40:55.025Z,102443.91
2022-09-04T06:43:33.183Z,102449.94
2022-09-04T06:46:18.814Z,102434.75
2022-09-04T06:49:10.653Z,102438.09
2022-09-04T06:52:16.130Z,102434.41
2022-09-04T06:55:02.880Z,102446.53
2022-09-04T06:58:13.993Z,102447.31
2022-09-04T07:00:54.152Z,102428.00
2022-09-04T07:04:01.880Z,102447.09
2022-09-04T07:06:55.445Z,102418.09
2022-09-04T07:09:35.011Z,102436.38
2022-09-04T07:12:20.114Z,102452.16
2022-09-04T07:15:37.433Z,102456.56
2022-09-04T07:18:29.897Z,102452.16
2022-09-04T07:21:28.636Z,102448.66
2022-09-04T07:24:32.559Z,102441.59
2022-09-04T07:27:30.517Z,102443.16
2022-09-04T07:30:06.575Z,102456.84
2022-09-04T07:33:05.773Z,102450.41
2022-09-04T07:36:17.569Z,102455.47
2022-09-04T07:39:25.453Z,102465.03
2022-09-04T07:42:27.952Z,102457.91
2022-09-04T07:45:22.510Z,102463.78
2022-09-04T07:48:22.097Z,102460.72
2022-09-04T07:51:10.681Z,102471.22
2022-09-04T07:54:07.719Z,102465.72
2022-09-04T07:57:31.875Z,102461.06
2022-09-04T08:00:18.058Z,102472.56
2022-09-04T08:03:54.281Z,102468.34
2022-09-04T08:06:33.713Z,102475.44
2022-09-04T08:09:20.491Z,102471.09
2022-09-04T08:12:05.202Z,102480.75
2022-09-04T08:14:49.249Z,102487.06
2022-09-04T08:17:49.808Z,102488.81
2022-09-04T08:20:43.433Z,102488.00
2022-09-04T08:23:35.542Z,102494.28
2022-09-04T08:26:16.446Z,102497.84
2022-09-04T08:28:58.206Z,102495.13
2022-09-04T08:31:55.361Z,102498.47
2022-09-04T08:35:20.320Z,102502.72
2022-09-04T08:38:26.352Z,102492.97
2022-09-04T08:41:29.470Z,102499.13
2022-09-04T08:44:02.867Z,102502.63
2022-09-04T08:47:17.797Z,102515.00
2022-09-04T08:50:17.434Z,102504.38
2022-09-04T08:53:18.770Z,102500.69
2022-09-04T08:56:06.405Z,102494.44
2022-09-04T08:59:01.282Z,102512.66
2022-09-04T09:02:03.362Z,102514.31
2022-09-04T09:04:49.445Z,102519.38
2022-09-04T09:08:02.630Z,102529.75
2022-09-04T09:11:21.688Z,102523.59
2022-09-04T09:14:16.070Z,102528.88
2022-09-04T09:16:56.745Z,102524.25
2022-09-04T09:19:41.647Z,102516.03
2022-09-04T09:23:06.610Z,102479.97
2022-09-04T09:26:10.787Z,102526.97
2022-09-04T09:28:54.460Z,102529.47
2022-09-04T09:31:42.729Z,102525.72
2022-09-04T09:34:30.397Z,102522.88
2022-09-04T09:37:18.923Z,102528.78
2022-09-04T09:40:13.270Z,102521.34
2022-09-04T09:43:20.650Z,102517.53
2022-09-04T09:46:36.456Z,102521.69
2022-09-04T09:49:21.882Z,102516.94
2022-09-04T09:52:22.964Z,102521.00
2022-09-04T09:55:40.765Z,102517.16
2022-09-04T09:58:49.621Z,102517.88
2022-09-04T10:01:25.530Z,102523.81
2022-09-04T10:04:53.050Z,102510.66
2022-09-04T10:07:53.957Z,102510.78
2022-09-04T10:11:10.279Z,102506.06
2022-09-04T10:14:23.171Z,102499.66
2022-09-04T10:17:25.387Z,102490.78
2022-09-04T10:20:36.323Z,102488.13
2022-09-04T10:23:30.090Z,102486.22
2022-09-04T10:26:31.847Z,102479.66
2022-09-04T10:29:45.091Z,102475.78
2022-09-04T10:32:33.886Z,102472.78
2022-09-04T10:35:25.155Z,102476.09
2022-09-04T10:38:20.069Z,102467.06
2022-09-04T10:41:43.167Z,102451.13
2022-09-04T10:44:44.148Z,102468.25
2022-09-04T10:47:13.882Z,102471.50
2022-09-04T10:49:48.963Z,102465.13
2022-09-04T10:52:48.493Z,102474.78
2022-09-04T10:55:26.593Z,102480.88
2022-09-04T10:58:22.481Z,102480.78
2022-09-04T11:01:17.330Z,102479.78
2022-09-04T11:04:02.672Z,102482.50
2022-09-04T11:06:59.429Z,102477.28
2022-09-04T11:10:04.356Z,102466.25
2022-09-04T11:12:56.269Z,102476.56
2022-09-04T11:16:05.875Z,102479.91
2022-09-04T11:18:45.547Z,102488.47
2022-09-04T11:21:24.625Z,102481.09
2022-09-04T11:24:25.648Z,102471.25
2022-09-04T11:27:10.469Z,102473.63
2022-09-04T11:29:47.804Z,102458.41
2022-09-04T11:33:04.998Z,102478.25
2022-09-04T11:36:25.977Z,102483.34
2022-09-04T11:39:27.317Z,102470.00
2022-09-04T11:42:36.957Z,102477.75
2022-09-04T11:45:51.986Z,102481.25
2022-09-04T11:48:43.163Z,102484.03
2022-09-04T11:51:44.108Z,102479.63
2022-09-04T11:54:36.087Z,102475.28
2022-09-04T11:57:52.473Z,102470.56
2022-09-04T12:00:20.569Z,102455.78
2022-09-04T12:03:05.888Z,102481.75
2022-09-04T12:06:13.945Z,102472.78
2022-09-04T12:09:25.445Z,102478.91
2022-09-04T12:12:28.378Z,102470.75
2022-09-04T12:15:13.447Z,102472.56
2022-09-04T12:18:18.674Z,102472.56
2022-09-04T12:21:37.806Z,102472.69
2022-09-04T12:24:26.362Z,102473.63
2022-09-04T12:27:44.237Z,102471.16
2022-09-04T12:30:32.839Z,102463.91
2022-09-04T12:33:14.761Z,102468.50
2022-09-04T12:35:56.985Z,102459.75
2022-09-04T12:38:56.825Z,102468.69
2022-09-04T12:41:42.460Z,102465.09
2022-09-04T12:44:44.893Z,102467.63
2022-09-04T12:47:59.075Z,102468.44
2022-09-04T12:51:12.397Z,102466.63
2022-09-04T12:53:58.413Z,102468.31
2022-09-04T12:56:57.465Z,102465.53
2022-09-04T12:59:54.540Z,102472.66
2022-09-04T13:02:45.088Z,102460.25
2022-09-04T13:06:04.000Z,102467.31
2022-09-04T13:08:53.367Z,102465.44
2022-09-04T13:12:02.443Z,102463.56
2022-09-04T13:14:35.221Z,102467.06
2022-09-04T13:17:30.090Z,102465.25
2022-09-04T13:20:23.970Z,102464.25
2022-09-04T13:22:53.965Z,102466.72
2022-09-04T13:26:29.768Z,102467.59
2022-09-04T13:29:30.367Z,102465.03
2022-09-04T13:32:24.578Z,102464.25
2022-09-04T13:35:14.809Z,102467.00
2022-09-04T13:38:02.886Z,102466.94
2022-09-04T13:41:04.916Z,102467.72
2022-09-04T13:43:59.526Z,102473.94
2022-09-04T13:46:41.339Z,102460.66
2022-09-04T13:49:21.612Z,102453.56
2022-09-04T13:52:07.336Z,102451.63
2022-09-04T13:54:45.883Z,102463.59
2022-09-04T13:57:25.887Z,102466.41
2022-09-04T13:59:59.222Z,102455.31
2022-09-04T14:02:28.458Z,102436.91
2022-09-04T14:05:20.603Z,102453.31
2022-09-04T14:07:58.638Z,102457.91
2022-09-04T14:11:23.215Z,102458.91
2022-09-04T14:13:52.840Z,102460.72
2022-09-04T14:16:23.847Z,102458.09
2022-09-04T14:19:16.037Z,102473.63
2022-09-04T14:22:04.350Z,102476.91
2022-09-04T14:25:00.964Z,102474.03
2022-09-04T14:28:03.459Z,102458.25
2022-09-04T14:30:44.785Z,102452.84
2022-09-04T14:33:35.547Z,102475.72
2022-09-04T14:36:14.930Z,102466.97
2022-09-04T14:39:20.625Z,102465.09
2022-09-04T14:42:27.304Z,102463.22
2022-09-04T14:45:13.179Z,102468.44
2022-09-04T14:47:54.870Z,102452.53
2022-09-04T14:50:29.479Z,102465.84
2022-09-04T14:53:10.085Z,102456.28
2022-09-04T14:56:19.949Z,102463.59
2022-09-04T14:59:12.766Z,102476.78
2022-09-04T15:02:17.359Z,102475.84
2022-09-04T15:05:01.470Z,102481.13
2022-09-04T15:07:43.834Z,102481.88
2022-09-04T15:10:16.196Z,102488.97
2022-09-04T15:13:14.066Z,102481.13
2022-09-04T15:15:54.866Z,102481.50
2022-09-04T15:18:40.752Z,102487.72
2022-09-04T15:21:31.851Z,102493.50
2022-09-04T15:24:27.811Z,102487.63
2022-09-04T15:27:12.660Z,102493.88
2022-09-04T15:29:51.649Z,102512.81
2022-09-04T15:32:39.848Z,102493.50
2022-09-04T15:35:32.702Z,102503.13
2022-09-04T15:38:22.050Z,102493.66
2022-09-04T15:41:16.030Z,102502.25
2022-09-04T15:44:00.125Z,102476.97
2022-09-04T15:46:56.958Z,102505.16
2022-09-04T15:49:36.290Z,102487.81
2022-09-04T15:52:41.203Z,102499.94
2022-09-04T15:55:29.321Z,102509.84
2022-09-04T15:58:11.007Z,102506.50
2022-09-04T16:01:06.093Z,102491.84
2022-09-04T16:03:47.407Z,102501.69
2022-09-04T16:06:32.192Z,102508.94
2022-09-04T16:09:17.310Z,102504.63
2022-09-04T16:12:12.806Z,102503.94
2022-09-04T16:15:02.810Z,102508.75
2022-09-04T16:17:44.595Z,102490.47
2022-09-04T16:20:18.391Z,102510.75
2022-09-04T16:22:52.899Z,102490.78
2022-09-04T16:25:27.227Z,102512.69
2022-09-04T16:28:25.511Z,102512.81
2022-09-04T16:31:03.927Z,102515.94
2022-09-04T16:33:34.472Z,102518.72
2022-09-04T16:36:34.864Z,102536.53
2022-09-04T16:39:49.950Z,102500.00
2022-09-04T16:42:43.828Z,102542.19
2022-09-04T16:45:22.057Z,102531.81
2022-09-04T16:48:14.483Z,102506.81
2022-09-04T16:51:39.265Z,102543.81
2022-09-04T16:54:28.964Z,102528.13
2022-09-04T16:57:12.263Z,102541.34
2022-09-04T16:59:46.033Z,102547.72
2022-09-04T17:02:37.520Z,102548.84
2022-09-04T17:05:45.748Z,102542.91
2022-09-04T17:08:20.015Z,102546.69
2022-09-04T17:11:04.197Z,102554.78
2022-09-04T17:14:08.920Z,102556.75
2022-09-04T17:17:30.182Z,102553.50
2022-09-04T17:22:05.776Z,102559.09
2022-09-04T17:29:00.161Z,102550.56
2022-09-04T17:29:15.823Z,102527.13
2022-09-04T17:29:55.675Z,102561.31
2022-09-04T17:37:11.947Z,102579.19
2022-09-04T17:40:36.758Z,102572.31
2022-09-04T17:40:46.825Z,102573.41
2022-09-04T17:42:23.811Z,102581.50
